Time;durP1;ratioP1;P1;durP2;ratioP2;P2;SDS_P1;SDS_P2;PMS_P1;PMS_P2;Temp;Humidity;BMP_temperature;BMP_pressure;BME280_temperature;BME280_humidity;BME280_pressure;Samples;Min_cycle;Max_cycle;Signal;HPM_P1;HPM_P2
2024/01/25 00:00:06;;;;;;;46.13;7.57;;;8.60;99.90;;;;;;5092741;28;20254;-59
2024/01/25 00:02:31;;;;;;;37.03;6.80;;;8.60;99.90;;;;;;5093220;28;20172;-60
2024/01/25 00:04:57;;;;;;;35.33;6.45;;;8.60;99.90;;;;;;5092584;28;20205;-60
2024/01/25 00:07:23;;;;;;;39.33;7.10;;;8.60;99.90;;;;;;5092622;28;20185;-59
2024/01/25 00:09:49;;;;;;;49.38;9.00;;;8.60;99.90;;;;;;5092812;28;20292;-60
2024/01/25 00:12:15;;;;;;;40.72;7.45;;;8.60;99.90;;;;;;5092517;28;20236;-59
2024/01/25 00:14:40;;;;;;;34.47;7.93;;;8.60;99.90;;;;;;5092439;28;20216;-57
2024/01/25 00:17:06;;;;;;;30.92;6.30;;;8.60;99.90;;;;;;5092334;28;20169;-59
2024/01/25 00:19:33;;;;;;;46.33;8.80;;;8.60;99.90;;;;;;5093025;28;20215;-60
2024/01/25 00:21:58;;;;;;;36.50;7.03;;;8.60;99.90;;;;;;5092808;28;20176;-58
2024/01/25 00:24:26;;;;;;;43.80;7.38;;;8.60;99.90;;;;;;5092154;28;20627;-56
2024/01/25 00:26:51;;;;;;;37.92;6.72;;;8.60;99.90;;;;;;5092207;28;20161;-60
2024/01/25 00:29:17;;;;;;;51.28;8.45;;;8.60;99.90;;;;;;5091052;28;20176;-59
2024/01/25 00:31:42;;;;;;;41.53;8.80;;;8.60;99.90;;;;;;5092166;28;20165;-58
2024/01/25 00:34:08;;;;;;;40.97;7.63;;;8.50;99.90;;;;;;5092353;28;20169;-58
2024/01/25 00:36:34;;;;;;;38.88;7.32;;;8.50;99.90;;;;;;5092164;28;20652;-58
2024/01/25 00:39:00;;;;;;;34.08;7.47;;;8.50;99.90;;;;;;5092581;28;20204;-59
2024/01/25 00:41:27;;;;;;;43.47;7.72;;;8.60;99.90;;;;;;5091975;28;20173;-59
2024/01/25 00:43:52;;;;;;;35.58;7.18;;;8.50;99.90;;;;;;5091781;28;20165;-61
2024/01/25 00:46:18;;;;;;;43.47;6.75;;;8.50;99.90;;;;;;5091872;28;20215;-59
2024/01/25 00:48:44;;;;;;;41.90;7.63;;;8.50;99.90;;;;;;5091873;28;20180;-62
2024/01/25 00:51:15;;;;;;;54.30;8.88;;;8.40;99.90;;;;;;5091854;28;20176;-61
2024/01/25 00:53:41;;;;;;;41.35;8.52;;;8.40;99.90;;;;;;5091798;28;20200;-61
2024/01/25 00:56:07;;;;;;;35.08;7.00;;;8.30;99.90;;;;;;5091616;28;20242;-61
2024/01/25 00:58:33;;;;;;;30.13;6.13;;;8.30;99.90;;;;;;5092195;28;20170;-57
2024/01/25 01:00:59;;;;;;;40.55;8.50;;;8.30;99.90;;;;;;5090863;28;20607;-60
2024/01/25 01:03:25;;;;;;;31.00;7.07;;;8.30;99.90;;;;;;5091477;28;20690;-58
2024/01/25 01:05:51;;;;;;;40.35;7.03;;;8.30;99.90;;;;;;5090574;28;20208;-60
2024/01/25 01:08:17;;;;;;;38.20;6.88;;;8.20;99.90;;;;;;5091085;28;20252;-55
2024/01/25 01:10:42;;;;;;;36.33;6.70;;;8.20;99.90;;;;;;5091547;28;20200;-60
2024/01/25 01:13:08;;;;;;;39.05;8.18;;;8.20;99.90;;;;;;5091465;28;20201;-60
2024/01/25 01:15:33;;;;;;;34.10;6.43;;;8.10;99.90;;;;;;5091368;28;20215;-56
2024/01/25 01:17:59;;;;;;;35.92;7.13;;;8.10;99.90;;;;;;5092031;28;20165;-60
2024/01/25 01:20:24;;;;;;;42.30;8.13;;;8.10;99.90;;;;;;5091415;28;20253;-60
2024/01/25 01:22:52;;;;;;;49.30;8.25;;;8.00;99.90;;;;;;5090033;28;20323;-61
2024/01/25 01:25:18;;;;;;;44.60;7.10;;;8.00;99.90;;;;;;5091497;28;20213;-57
2024/01/25 01:27:43;;;;;;;50.40;7.72;;;8.00;99.90;;;;;;5091276;28;20157;-58
2024/01/25 01:30:09;;;;;;;41.85;8.13;;;8.00;99.90;;;;;;5091309;28;20565;-59
2024/01/25 01:32:35;;;;;;;39.67;6.97;;;8.00;99.90;;;;;;5091289;28;20161;-58
2024/01/25 01:35:00;;;;;;;28.77;5.70;;;7.90;99.90;;;;;;5091643;28;20572;-58
2024/01/25 01:37:26;;;;;;;41.13;8.88;;;7.90;99.90;;;;;;5091187;28;20171;-58
2024/01/25 01:39:52;;;;;;;38.67;6.63;;;7.90;99.90;;;;;;5091168;28;20252;-59
2024/01/25 01:42:18;;;;;;;38.30;8.13;;;7.80;99.90;;;;;;5091165;28;20161;-58
2024/01/25 01:44:43;;;;;;;29.65;6.20;;;7.90;99.90;;;;;;5091066;28;20205;-59
2024/01/25 01:47:09;;;;;;;37.90;6.93;;;7.80;99.90;;;;;;5089794;28;20181;-59
2024/01/25 01:49:35;;;;;;;33.75;6.35;;;7.80;99.90;;;;;;5091148;28;20625;-57
2024/01/25 01:52:02;;;;;;;31.23;6.18;;;7.80;99.90;;;;;;5091841;28;20180;-58
2024/01/25 01:54:27;;;;;;;45.13;6.75;;;7.80;99.90;;;;;;5090943;28;20244;-54
2024/01/25 01:56:53;;;;;;;47.42;7.45;;;7.80;99.90;;;;;;5090860;28;20248;-57
2024/01/25 01:59:20;;;;;;;35.67;7.50;;;7.70;99.90;;;;;;5091272;28;20572;-59
2024/01/25 02:01:46;;;;;;;46.00;7.15;;;7.70;99.90;;;;;;5089675;28;20177;-58
2024/01/25 02:04:11;;;;;;;35.30;7.05;;;7.70;99.90;;;;;;5090825;28;20161;-56
2024/01/25 02:06:37;;;;;;;39.70;6.85;;;7.70;99.90;;;;;;5089795;28;20169;-58
2024/01/25 02:09:03;;;;;;;47.22;8.27;;;7.60;99.90;;;;;;5091095;28;20223;-51
2024/01/25 02:11:29;;;;;;;43.95;7.28;;;7.60;99.90;;;;;;5091698;28;20221;-57
2024/01/25 02:13:55;;;;;;;45.80;6.72;;;7.60;99.90;;;;;;5090899;28;20710;-55
2024/01/25 02:16:20;;;;;;;32.97;6.45;;;7.50;99.90;;;;;;5092504;28;20188;-56
2024/01/25 02:18:47;;;;;;;48.30;7.55;;;7.50;99.90;;;;;;5094738;28;20632;-59
2024/01/25 02:21:13;;;;;;;43.70;7.50;;;7.60;99.90;;;;;;5094924;28;20177;-58
2024/01/25 02:23:39;;;;;;;53.75;7.63;;;7.50;99.90;;;;;;5094552;28;20176;-57
2024/01/25 02:26:04;;;;;;;44.33;9.30;;;7.50;99.90;;;;;;5094758;28;20212;-58
2024/01/25 02:28:30;;;;;;;41.03;7.63;;;7.50;99.90;;;;;;5095184;28;20170;-58
2024/01/25 02:30:55;;;;;;;33.15;7.28;;;7.50;99.90;;;;;;5094701;28;20524;-60
2024/01/25 02:33:21;;;;;;;43.50;7.55;;;7.50;99.90;;;;;;5094491;28;20726;-51
2024/01/25 02:35:46;;;;;;;46.78;8.02;;;7.60;99.90;;;;;;5094396;28;20264;-51
2024/01/25 02:38:12;;;;;;;33.90;6.88;;;7.50;99.90;;;;;;5094386;28;20207;-51
2024/01/25 02:40:37;;;;;;;43.30;7.70;;;7.60;99.90;;;;;;5094261;28;20169;-50
2024/01/25 02:43:03;;;;;;;43.28;7.82;;;7.50;99.90;;;;;;5094259;28;20162;-51
2024/01/25 02:45:29;;;;;;;44.22;8.10;;;7.60;99.90;;;;;;5094529;28;20203;-51
2024/01/25 02:47:54;;;;;;;43.47;8.23;;;7.60;99.90;;;;;;5094237;28;20705;-52
2024/01/25 02:50:20;;;;;;;42.80;7.35;;;7.60;99.90;;;;;;5093573;28;20175;-51
2024/01/25 02:52:45;;;;;;;42.92;8.18;;;7.60;99.90;;;;;;5093838;28;20212;-51
2024/01/25 02:55:11;;;;;;;44.95;7.05;;;7.60;99.90;;;;;;5094138;28;20227;-51
2024/01/25 02:57:37;;;;;;;43.30;7.25;;;7.60;99.90;;;;;;5093909;28;20225;-51
2024/01/25 03:00:03;;;;;;;50.97;7.68;;;7.60;99.90;;;;;;5094449;28;20169;-51
2024/01/25 03:02:28;;;;;;;52.67;7.88;;;7.60;99.90;;;;;;5094495;28;20211;-51
2024/01/25 03:04:54;;;;;;;44.03;7.40;;;7.60;99.90;;;;;;5093810;28;20604;-51
2024/01/25 03:07:20;;;;;;;40.90;7.18;;;7.60;99.90;;;;;;5094083;28;20184;-51
2024/01/25 03:09:45;;;;;;;36.58;6.90;;;7.60;99.90;;;;;;5093709;28;20652;-56
2024/01/25 03:12:11;;;;;;;43.35;7.40;;;7.60;99.90;;;;;;5093559;28;20166;-54
2024/01/25 03:14:36;;;;;;;45.38;7.25;;;7.60;99.90;;;;;;5093676;28;20174;-52
2024/01/25 03:17:02;;;;;;;45.08;8.35;;;7.60;99.90;;;;;;5094061;28;20621;-50
2024/01/25 03:19:28;;;;;;;28.65;7.18;;;7.50;99.90;;;;;;5094290;28;20238;-52
2024/01/25 03:21:54;;;;;;;42.13;7.63;;;7.50;99.90;;;;;;5093571;28;20497;-52
2024/01/25 03:24:20;;;;;;;58.13;8.57;;;7.40;99.90;;;;;;5093687;28;20197;-53
2024/01/25 03:26:46;;;;;;;41.35;6.72;;;7.40;99.90;;;;;;5093190;28;20274;-52
2024/01/25 03:29:11;;;;;;;50.65;7.28;;;7.40;99.90;;;;;;5092763;28;20310;-59
2024/01/25 03:31:37;;;;;;;50.75;8.30;;;7.40;99.90;;;;;;5093582;28;20177;-53
2024/01/25 03:34:03;;;;;;;48.95;7.95;;;7.40;99.90;;;;;;5092598;28;20161;-52
2024/01/25 03:36:28;;;;;;;30.67;6.05;;;7.40;99.90;;;;;;5094053;28;20260;-52
2024/01/25 03:38:54;;;;;;;40.58;7.13;;;7.30;99.90;;;;;;5093147;28;20572;-53
2024/01/25 03:41:20;;;;;;;54.00;9.25;;;7.40;99.90;;;;;;5093091;28;20173;-52
2024/01/25 03:43:45;;;;;;;37.03;6.45;;;7.30;99.90;;;;;;5093183;28;20169;-52
2024/01/25 03:46:13;;;;;;;42.33;7.70;;;7.30;99.90;;;;;;5092904;28;20204;-52
2024/01/25 03:48:39;;;;;;;52.25;8.13;;;7.30;99.90;;;;;;5093261;28;20176;-58
2024/01/25 03:51:05;;;;;;;40.83;8.63;;;7.30;99.90;;;;;;5093185;28;20582;-52
2024/01/25 03:53:30;;;;;;;42.25;8.98;;;7.20;99.90;;;;;;5092310;28;20184;-52
2024/01/25 03:55:56;;;;;;;43.85;8.15;;;7.10;99.90;;;;;;5092937;28;20173;-52
2024/01/25 03:58:21;;;;;;;48.13;7.03;;;7.10;99.90;;;;;;5092786;28;20178;-52
2024/01/25 04:00:47;;;;;;;33.53;7.15;;;7.10;99.90;;;;;;5092747;28;20165;-52
2024/01/25 04:03:13;;;;;;;48.03;8.15;;;7.10;99.90;;;;;;5092960;28;20169;-52
2024/01/25 04:05:41;;;;;;;48.55;8.90;;;7.10;99.90;;;;;;5092616;28;20270;-57
2024/01/25 04:08:07;;;;;;;49.97;8.48;;;7.10;99.90;;;;;;5092646;28;20176;-56
2024/01/25 04:10:33;;;;;;;38.42;7.68;;;7.10;99.90;;;;;;5092564;28;20165;-58
2024/01/25 04:13:00;;;;;;;41.55;7.45;;;7.10;99.90;;;;;;5092809;28;20193;-60
2024/01/25 04:15:26;;;;;;;41.50;7.20;;;7.10;99.90;;;;;;5092559;28;20192;-60
2024/01/25 04:17:53;;;;;;;35.28;6.47;;;7.10;99.90;;;;;;5092459;28;20629;-60
2024/01/25 04:20:19;;;;;;;33.55;7.10;;;7.10;99.90;;;;;;5092362;28;20613;-58
2024/01/25 04:22:45;;;;;;;44.63;9.60;;;7.10;99.90;;;;;;5092649;28;20558;-60
2024/01/25 04:25:11;;;;;;;54.58;9.25;;;7.10;99.90;;;;;;5092193;28;20243;-52
2024/01/25 04:27:38;;;;;;;42.80;8.18;;;7.10;99.90;;;;;;5092545;28;20256;-54
2024/01/25 04:30:04;;;;;;;33.97;6.53;;;7.00;99.90;;;;;;5092153;28;20593;-59
2024/01/25 04:32:30;;;;;;;35.42;8.85;;;7.00;99.90;;;;;;5092474;28;20200;-56
2024/01/25 04:34:55;;;;;;;39.97;8.02;;;7.00;99.90;;;;;;5092077;28;20205;-52
2024/01/25 04:37:21;;;;;;;49.47;8.30;;;7.00;99.90;;;;;;5091983;28;20172;-52
2024/01/25 04:39:47;;;;;;;40.60;7.45;;;7.00;99.90;;;;;;5091862;28;20176;-55
2024/01/25 04:42:12;;;;;;;35.20;6.70;;;7.00;99.90;;;;;;5092016;28;20168;-52
2024/01/25 04:44:38;;;;;;;38.45;7.32;;;7.00;99.90;;;;;;5091980;28;20197;-52
2024/01/25 04:47:03;;;;;;;51.67;8.15;;;6.90;99.90;;;;;;5092017;28;20189;-51
2024/01/25 04:49:29;;;;;;;57.10;8.23;;;6.90;99.90;;;;;;5092497;28;20206;-51
2024/01/25 04:51:54;;;;;;;38.35;7.28;;;6.80;99.90;;;;;;5091901;28;20243;-51
2024/01/25 04:54:20;;;;;;;44.75;7.85;;;6.90;99.90;;;;;;5091772;28;20166;-52
2024/01/25 04:56:45;;;;;;;37.97;6.80;;;6.80;99.90;;;;;;5091594;28;20217;-58
2024/01/25 04:59:11;;;;;;;43.78;7.55;;;6.90;99.90;;;;;;5091822;28;20165;-58
2024/01/25 05:01:36;;;;;;;41.72;7.65;;;6.90;99.90;;;;;;5091771;28;20195;-59
2024/01/25 05:04:03;;;;;;;48.38;7.80;;;6.90;99.90;;;;;;5092169;28;20165;-58
2024/01/25 05:06:28;;;;;;;53.47;7.82;;;6.80;99.90;;;;;;5092417;28;20178;-59
2024/01/25 05:08:54;;;;;;;42.60;7.00;;;6.80;99.90;;;;;;5091612;28;20692;-58
2024/01/25 05:11:20;;;;;;;44.38;7.70;;;6.70;99.90;;;;;;5091570;28;20173;-56
2024/01/25 05:13:45;;;;;;;48.25;7.57;;;6.70;99.90;;;;;;5091507;28;20174;-58
2024/01/25 05:16:11;;;;;;;37.30;7.25;;;6.70;99.90;;;;;;5091763;28;20263;-57
2024/01/25 05:18:36;;;;;;;37.35;7.32;;;6.60;99.90;;;;;;5091488;28;20242;-58
2024/01/25 05:21:02;;;;;;;39.63;8.02;;;6.70;99.90;;;;;;5091491;28;20169;-53
2024/01/25 05:23:28;;;;;;;49.58;7.25;;;6.60;99.90;;;;;;5091966;28;20180;-56
2024/01/25 05:25:53;;;;;;;39.30;7.78;;;6.60;99.90;;;;;;5091193;28;20571;-52
2024/01/25 05:28:19;;;;;;;27.85;6.50;;;6.60;99.90;;;;;;5090288;28;20169;-52
2024/01/25 05:30:44;;;;;;;49.92;8.05;;;6.50;99.90;;;;;;5091243;28;20157;-52
2024/01/25 05:33:10;;;;;;;34.47;8.60;;;6.50;99.90;;;;;;5091435;28;20252;-52
2024/01/25 05:35:36;;;;;;;30.17;6.90;;;6.50;99.90;;;;;;5089831;28;20171;-52
2024/01/25 05:38:01;;;;;;;39.03;8.82;;;6.40;99.90;;;;;;5091496;28;20173;-52
2024/01/25 05:40:27;;;;;;;35.63;7.43;;;8.30;99.90;;;;;;5091794;28;20185;-53
2024/01/25 05:42:53;;;;;;;42.22;6.82;;;6.30;99.90;;;;;;5091039;28;20166;-52
2024/01/25 05:45:21;;;;;;;31.73;6.93;;;6.30;99.90;;;;;;5090904;28;20208;-52
2024/01/25 05:47:47;;;;;;;34.97;8.30;;;6.30;99.90;;;;;;5091118;28;20169;-52
2024/01/25 05:50:13;;;;;;;41.72;7.55;;;6.30;99.90;;;;;;5091161;28;20248;-51
2024/01/25 05:52:38;;;;;;;33.47;6.68;;;6.30;99.90;;;;;;5095111;28;20563;-53
2024/01/25 05:55:05;;;;;;;41.20;7.35;;;6.30;99.90;;;;;;5095462;28;20161;-53
2024/01/25 05:57:31;;;;;;;38.88;7.43;;;6.20;99.90;;;;;;5095481;28;20213;-58
2024/01/25 05:59:57;;;;;;;39.95;7.97;;;6.30;99.90;;;;;;5095420;28;20670;-56
2024/01/25 06:02:22;;;;;;;49.40;8.88;;;6.30;99.90;;;;;;5095341;28;20173;-58
2024/01/25 06:04:48;;;;;;;44.58;7.90;;;6.30;99.90;;;;;;5093691;28;20548;-52
2024/01/25 06:07:13;;;;;;;42.92;8.18;;;6.20;99.90;;;;;;5094971;28;20168;-58
2024/01/25 06:09:39;;;;;;;38.95;8.40;;;6.30;99.90;;;;;;5094899;28;20535;-58
2024/01/25 06:12:05;;;;;;;53.83;9.25;;;6.20;99.90;;;;;;5094925;28;20218;-55
2024/01/25 06:14:30;;;;;;;50.60;8.32;;;6.20;99.90;;;;;;5095269;28;20169;-52
2024/01/25 06:16:56;;;;;;;51.50;7.80;;;6.30;99.90;;;;;;5094762;28;20166;-52
2024/01/25 06:19:22;;;;;;;40.53;7.47;;;6.30;99.90;;;;;;5094772;28;20617;-53
2024/01/25 06:21:47;;;;;;;46.95;8.23;;;6.30;99.90;;;;;;5094654;28;20629;-59
2024/01/25 06:24:13;;;;;;;49.83;8.55;;;6.30;99.90;;;;;;5094527;28;20193;-52
2024/01/25 06:26:38;;;;;;;45.95;8.23;;;6.30;99.90;;;;;;5094531;28;20170;-52
2024/01/25 06:29:04;;;;;;;50.53;9.25;;;6.30;99.90;;;;;;5094510;28;20617;-52
2024/01/25 06:31:30;;;;;;;41.33;8.00;;;6.30;99.90;;;;;;5095028;28;20175;-52
2024/01/25 06:33:55;;;;;;;30.98;6.97;;;6.30;99.90;;;;;;5094396;28;20165;-52
2024/01/25 06:36:21;;;;;;;37.13;9.05;;;6.20;99.90;;;;;;5094313;28;20249;-53
2024/01/25 06:38:47;;;;;;;49.70;8.88;;;6.20;99.90;;;;;;5094326;28;20282;-52
2024/01/25 06:41:12;;;;;;;49.15;8.15;;;6.20;99.90;;;;;;5094375;28;20189;-52
2024/01/25 06:43:39;;;;;;;29.95;7.00;;;6.20;99.90;;;;;;5094196;28;20218;-59
2024/01/25 06:46:06;;;;;;;36.65;7.25;;;6.20;99.90;;;;;;5094345;28;20209;-59
2024/01/25 06:48:31;;;;;;;38.70;7.70;;;6.20;99.90;;;;;;5094509;28;20267;-59
2024/01/25 06:50:57;;;;;;;42.00;8.80;;;7.70;99.90;;;;;;5094587;28;20197;-59
2024/01/25 06:53:22;;;;;;;42.25;7.85;;;6.20;99.90;;;;;;5094071;28;20165;-57
2024/01/25 06:55:48;;;;;;;41.20;7.25;;;6.20;99.90;;;;;;5093979;28;20176;-57
2024/01/25 06:58:13;;;;;;;39.15;7.85;;;6.10;99.90;;;;;;5093729;28;20213;-58
2024/01/25 07:00:41;;;;;;;46.33;8.07;;;6.10;99.90;;;;;;5093932;28;20226;-58
2024/01/25 07:03:07;;;;;;;41.17;9.00;;;6.10;99.90;;;;;;5094107;28;20169;-59
2024/01/25 07:05:33;;;;;;;46.35;9.45;;;6.10;99.90;;;;;;5093738;28;20255;-57
2024/01/25 07:07:59;;;;;;;40.13;7.88;;;6.00;99.90;;;;;;5094571;28;20176;-59
2024/01/25 07:10:25;;;;;;;41.22;7.50;;;6.00;99.90;;;;;;5093752;28;20248;-58
2024/01/25 07:12:51;;;;;;;36.97;7.30;;;5.90;99.90;;;;;;5093729;28;20657;-60
2024/01/25 07:15:17;;;;;;;54.15;9.25;;;5.90;99.90;;;;;;5093952;28;20177;-59
2024/01/25 07:17:43;;;;;;;36.00;8.18;;;6.00;99.90;;;;;;5093656;28;20157;-55
2024/01/25 07:20:09;;;;;;;34.38;8.15;;;6.00;99.90;;;;;;5093636;28;20296;-58
2024/01/25 07:22:35;;;;;;;49.97;8.25;;;6.00;99.90;;;;;;5093487;28;20655;-58
2024/01/25 07:25:00;;;;;;;39.35;7.32;;;5.90;99.90;;;;;;5093853;28;20201;-60
2024/01/25 07:27:26;;;;;;;56.85;8.98;;;6.00;99.90;;;;;;5093394;28;20555;-59
2024/01/25 07:29:51;;;;;;;43.67;7.10;;;5.90;99.90;;;;;;5093375;28;20185;-59
2024/01/25 07:32:18;;;;;;;42.15;8.82;;;5.90;99.90;;;;;;5093359;28;20169;-54
2024/01/25 07:34:44;;;;;;;39.92;8.23;;;5.90;99.90;;;;;;5093314;28;20571;-58
2024/01/25 07:37:11;;;;;;;42.03;7.95;;;5.90;99.90;;;;;;5091877;28;20204;-59
2024/01/25 07:39:36;;;;;;;53.60;7.57;;;6.00;99.90;;;;;;5093495;28;20166;-55
2024/01/25 07:42:02;;;;;;;37.55;8.48;;;6.00;99.90;;;;;;5093042;28;20264;-53
2024/01/25 07:44:28;;;;;;;34.50;7.63;;;6.00;99.90;;;;;;5093529;28;20197;-58
2024/01/25 07:46:53;;;;;;;41.90;8.95;;;6.00;99.90;;;;;;5093141;28;20165;-55
2024/01/25 07:49:19;;;;;;;59.28;10.95;;;6.00;99.90;;;;;;5092975;28;20238;-52
2024/01/25 07:51:45;;;;;;;48.13;9.88;;;6.10;99.90;;;;;;5092968;28;20165;-52
2024/01/25 07:54:10;;;;;;;43.58;10.15;;;6.00;99.90;;;;;;5092854;28;20161;-53
2024/01/25 07:56:36;;;;;;;47.88;11.13;;;6.00;99.90;;;;;;5092724;28;20259;-52
2024/01/25 07:59:01;;;;;;;39.17;11.27;;;6.10;99.90;;;;;;5093245;28;20215;-52
2024/01/25 08:01:27;;;;;;;59.58;13.68;;;6.90;99.90;;;;;;5093200;28;20169;-52
2024/01/25 08:03:52;;;;;;;54.72;12.88;;;6.20;99.90;;;;;;5092768;28;20629;-55
2024/01/25 08:06:18;;;;;;;50.35;14.48;;;6.20;99.90;;;;;;5092634;28;20216;-56
2024/01/25 08:08:43;;;;;;;44.45;13.07;;;6.20;99.90;;;;;;5092654;28;20168;-57
2024/01/25 08:11:09;;;;;;;51.75;13.90;;;6.20;99.90;;;;;;5092630;28;20169;-53
2024/01/25 08:13:34;;;;;;;46.63;15.00;;;6.30;99.90;;;;;;5090676;28;20166;-58
2024/01/25 08:16:00;;;;;;;42.80;13.57;;;6.30;99.90;;;;;;5092901;28;20205;-57
2024/01/25 08:18:29;;;;;;;48.58;14.35;;;6.30;99.90;;;;;;5092505;28;20175;-59
2024/01/25 08:20:54;;;;;;;51.95;14.35;;;6.40;99.90;;;;;;5092591;28;20173;-58
2024/01/25 08:23:20;;;;;;;55.40;17.73;;;6.50;99.90;;;;;;5092636;28;20180;-59
2024/01/25 08:25:46;;;;;;;54.13;15.43;;;6.40;99.90;;;;;;5092161;28;20209;-53
2024/01/25 08:28:11;;;;;;;55.53;16.38;;;6.50;99.90;;;;;;5092199;28;20162;-52
2024/01/25 08:30:37;;;;;;;55.15;16.20;;;6.60;99.90;;;;;;5092218;28;20172;-52
2024/01/25 08:33:03;;;;;;;75.45;17.52;;;6.60;99.90;;;;;;5092188;28;20165;-52
2024/01/25 08:35:30;;;;;;;60.40;15.68;;;6.60;99.90;;;;;;5092582;28;20524;-52
2024/01/25 08:37:56;;;;;;;56.80;17.45;;;6.60;99.90;;;;;;5092009;28;20165;-51
2024/01/25 08:40:21;;;;;;;48.95;15.93;;;6.70;99.90;;;;;;5092005;28;20170;-52
2024/01/25 08:42:47;;;;;;;49.03;16.05;;;8.30;99.90;;;;;;5091929;28;20177;-58
2024/01/25 08:45:13;;;;;;;51.10;15.25;;;6.80;99.90;;;;;;5091887;28;20298;-52
2024/01/25 08:47:39;;;;;;;50.42;14.70;;;6.80;99.90;;;;;;5092120;28;20172;-52
2024/01/25 08:50:08;;;;;;;52.15;16.00;;;6.80;99.90;;;;;;5091795;28;20168;-51
2024/01/25 08:52:34;;;;;;;55.75;13.70;;;6.90;99.90;;;;;;5091760;28;20164;-51
2024/01/25 08:55:00;;;;;;;45.05;13.50;;;6.90;99.90;;;;;;5092502;28;20173;-52
2024/01/25 08:57:25;;;;;;;58.92;14.38;;;7.00;99.90;;;;;;5091579;28;20213;-58
2024/01/25 08:59:51;;;;;;;53.03;13.43;;;7.00;99.90;;;;;;5091715;28;20250;-60
2024/01/25 09:02:16;;;;;;;54.05;13.95;;;7.10;99.90;;;;;;5091702;28;20165;-57
2024/01/25 09:04:43;;;;;;;51.50;14.00;;;7.10;99.90;;;;;;5091517;28;20668;-53
2024/01/25 09:07:08;;;;;;;50.67;13.65;;;7.20;99.90;;;;;;5091845;28;20264;-52
2024/01/25 09:09:34;;;;;;;52.22;13.68;;;7.20;99.90;;;;;;5091514;28;20197;-55
2024/01/25 09:12:00;;;;;;;49.20;14.57;;;7.30;99.90;;;;;;5092020;28;20670;-60
2024/01/25 09:14:25;;;;;;;46.60;13.45;;;7.40;99.90;;;;;;5091483;28;20165;-60
2024/01/25 09:16:51;;;;;;;47.70;13.20;;;7.50;99.90;;;;;;5091440;28;20204;-60
2024/01/25 09:19:17;;;;;;;41.03;13.85;;;7.50;99.90;;;;;;5091360;28;20166;-60
2024/01/25 09:21:42;;;;;;;58.72;14.05;;;7.50;99.90;;;;;;5091343;28;20173;-60
2024/01/25 09:24:08;;;;;;;44.83;13.65;;;7.50;99.90;;;;;;5091346;28;20172;-60
2024/01/25 09:26:33;;;;;;;42.13;13.40;;;7.50;99.90;;;;;;5090307;28;20651;-59
2024/01/25 09:28:59;;;;;;;52.95;14.13;;;7.60;99.90;;;;;;5091839;28;20193;-60
2024/01/25 09:31:25;;;;;;;56.67;13.70;;;7.60;99.90;;;;;;5091350;28;20165;-60
2024/01/25 09:33:51;;;;;;;46.15;13.60;;;7.70;99.90;;;;;;5091261;28;20531;-60
2024/01/25 09:36:17;;;;;;;41.55;12.70;;;7.80;99.90;;;;;;5091174;28;20521;-60
2024/01/25 09:38:42;;;;;;;43.10;12.85;;;7.80;99.90;;;;;;5091199;28;20168;-60
2024/01/25 09:41:08;;;;;;;50.85;13.25;;;7.70;99.90;;;;;;5091145;28;20706;-58
2024/01/25 09:43:35;;;;;;;43.35;14.70;;;7.70;99.90;;;;;;5091077;28;20207;-59
2024/01/25 09:46:01;;;;;;;53.10;14.10;;;7.70;99.90;;;;;;5091437;28;20201;-60
2024/01/25 09:48:27;;;;;;;52.78;15.32;;;6.80;99.90;;;;;;5091837;28;20170;-60
2024/01/25 09:50:55;;;;;;;52.90;15.60;;;7.90;99.90;;;;;;5090976;28;20576;-60
2024/01/25 09:53:24;;;;;;;59.20;14.85;;;7.90;99.90;;;;;;5090937;28;20252;-60
2024/01/25 09:56:07;;;;;;;48.35;14.45;;;7.90;99.90;;;;;;5091144;28;20227;-60
2024/01/25 09:58:44;;;;;;;43.47;13.48;;;7.90;99.90;;;;;;5089751;28;20204;-60
2024/01/25 10:01:12;;;;;;;51.72;14.95;;;8.00;99.90;;;;;;5091289;28;20177;-60
2024/01/25 10:03:44;;;;;;;53.35;15.15;;;8.00;99.90;;;;;;5091255;28;20265;-58
2024/01/25 10:06:11;;;;;;;44.13;12.63;;;8.00;99.90;;;;;;5090811;28;20213;-60
2024/01/25 10:08:37;;;;;;;47.35;14.50;;;8.00;99.90;;;;;;5091205;28;20180;-59
2024/01/25 10:11:03;;;;;;;58.20;15.88;;;8.10;99.90;;;;;;5091102;28;20169;-60
2024/01/25 10:13:29;;;;;;;46.58;14.95;;;8.20;99.90;;;;;;5091412;28;20189;-58
2024/01/25 10:15:55;;;;;;;46.78;14.77;;;8.30;99.90;;;;;;5090910;28;20189;-57
2024/01/25 10:18:23;;;;;;;41.25;13.43;;;8.40;99.90;;;;;;5090769;28;20677;-58
2024/01/25 10:20:48;;;;;;;52.03;15.40;;;8.40;99.90;;;;;;5090192;28;20198;-60
2024/01/25 10:23:14;;;;;;;55.13;15.65;;;8.30;99.90;;;;;;5090553;28;20577;-60
2024/01/25 10:25:40;;;;;;;46.13;15.63;;;8.30;99.90;;;;;;5090705;28;20213;-60
2024/01/25 10:28:07;;;;;;;47.42;16.00;;;8.30;99.90;;;;;;5090672;28;20647;-58
2024/01/25 10:30:34;;;;;;;52.53;14.65;;;8.30;99.90;;;;;;5090703;28;20173;-59
2024/01/25 10:33:04;;;;;;;51.35;15.82;;;8.30;99.90;;;;;;5090937;28;20169;-60
2024/01/25 10:35:31;;;;;;;47.00;16.25;;;8.30;99.90;;;;;;5090851;28;20250;-60
2024/01/25 10:37:57;;;;;;;54.90;16.23;;;8.30;99.90;;;;;;5093520;28;20204;-60
2024/01/25 10:40:23;;;;;;;56.58;17.23;;;8.40;99.90;;;;;;5094201;28;20714;-60
2024/01/25 10:42:49;;;;;;;55.42;17.65;;;8.40;99.90;;;;;;5094069;28;20204;-60
2024/01/25 10:45:14;;;;;;;56.05;18.63;;;8.50;99.90;;;;;;5094143;28;20205;-60
2024/01/25 10:47:44;;;;;;;64.90;17.40;;;8.50;99.90;;;;;;5093723;28;20659;-57
2024/01/25 10:50:13;;;;;;;44.20;15.68;;;8.50;99.90;;;;;;5093932;28;20652;-59
2024/01/25 10:52:41;;;;;;;45.58;17.65;;;8.50;99.90;;;;;;5093879;28;20166;-59
2024/01/25 10:55:11;;;;;;;48.92;16.30;;;8.60;99.90;;;;;;5094130;28;20503;-60
2024/01/25 10:57:37;;;;;;;61.15;17.33;;;8.60;99.90;;;;;;5093641;28;20733;-59
2024/01/25 11:00:07;;;;;;;44.63;16.75;;;8.60;99.90;;;;;;5093735;28;20165;-60
2024/01/25 11:02:35;;;;;;;57.83;16.90;;;8.70;99.90;;;;;;5093732;28;20183;-59
2024/01/25 11:05:02;;;;;;;44.28;16.95;;;8.60;99.90;;;;;;5094261;28;20201;-60
2024/01/25 11:07:28;;;;;;;47.38;17.08;;;8.30;99.90;;;;;;5094240;28;20269;-57
2024/01/25 11:09:54;;;;;;;53.60;17.60;;;8.80;99.90;;;;;;5093476;28;20252;-54
2024/01/25 11:12:19;;;;;;;56.40;16.75;;;8.80;99.90;;;;;;5094001;28;20252;-52
2024/01/25 11:14:45;;;;;;;50.47;17.00;;;8.90;99.90;;;;;;5093712;28;20168;-52
2024/01/25 11:17:20;;;;;;;46.22;16.90;;;9.00;99.90;;;;;;5093663;28;20196;-53
2024/01/25 11:19:47;;;;;;;45.13;16.73;;;8.90;99.90;;;;;;5093577;28;20181;-53
2024/01/25 11:22:14;;;;;;;42.35;14.63;;;8.90;99.90;;;;;;5093627;28;20157;-52
2024/01/25 11:24:39;;;;;;;45.70;16.27;;;9.00;99.90;;;;;;5093482;28;20312;-55
2024/01/25 11:27:05;;;;;;;47.63;16.60;;;8.90;99.90;;;;;;5093775;28;20264;-52
2024/01/25 11:29:31;;;;;;;45.60;15.50;;;9.00;99.90;;;;;;5093911;28;20632;-58
2024/01/25 11:31:57;;;;;;;57.60;15.45;;;9.10;99.90;;;;;;5093778;28;20166;-55
2024/01/25 11:34:23;;;;;;;46.42;15.80;;;9.00;99.90;;;;;;5093596;28;20161;-57
2024/01/25 11:36:49;;;;;;;44.22;14.75;;;9.00;99.90;;;;;;5092008;28;20513;-59
2024/01/25 11:39:16;;;;;;;45.20;16.65;;;9.10;99.90;;;;;;5093235;28;20205;-58
2024/01/25 11:41:44;;;;;;;43.05;15.48;;;9.20;99.90;;;;;;5093252;28;20215;-58
2024/01/25 11:44:10;;;;;;;47.00;16.50;;;9.30;99.90;;;;;;5093124;28;20272;-59
2024/01/25 11:46:36;;;;;;;48.17;16.30;;;9.40;99.90;;;;;;5092941;28;20201;-52
2024/01/25 11:49:02;;;;;;;44.83;15.48;;;9.50;99.90;;;;;;5091062;28;20531;-51
2024/01/25 11:51:27;;;;;;;49.70;16.90;;;9.50;99.90;;;;;;5093779;28;20169;-54
2024/01/25 11:53:53;;;;;;;50.53;16.05;;;9.60;99.90;;;;;;5093092;28;20165;-52
2024/01/25 11:56:31;;;;;;;50.67;15.23;;;9.60;99.90;;;;;;5092821;28;20209;-52
2024/01/25 11:58:57;;;;;;;42.65;15.20;;;9.60;99.90;;;;;;5093751;28;20173;-52
2024/01/25 12:01:27;;;;;;;48.67;15.85;;;9.80;99.90;;;;;;5092828;28;20173;-51
2024/01/25 12:03:53;;;;;;;53.25;16.00;;;9.80;99.90;;;;;;5092753;28;20226;-54
2024/01/25 12:06:19;;;;;;;61.80;18.55;;;10.00;99.90;;;;;;5092708;28;20596;-53
2024/01/25 12:08:47;;;;;;;43.72;14.35;;;10.00;99.90;;;;;;5092775;28;20191;-54
2024/01/25 12:11:13;;;;;;;50.20;16.45;;;10.10;99.90;;;;;;5092684;28;20193;-54
2024/01/25 12:13:40;;;;;;;43.28;13.43;;;10.10;99.90;;;;;;5091345;28;20625;-56
2024/01/25 12:16:07;;;;;;;43.47;13.70;;;10.10;99.90;;;;;;5092453;28;20206;-52
2024/01/25 12:18:34;;;;;;;43.22;12.77;;;10.00;99.90;;;;;;5092754;28;20542;-52
2024/01/25 12:21:04;;;;;;;49.65;19.15;;;10.10;99.90;;;;;;5093164;28;20170;-53
2024/01/25 12:23:43;;;;;;;47.47;10.63;;;10.10;99.90;;;;;;5093129;28;20256;-52
2024/01/25 12:26:10;;;;;;;42.33;9.88;;;10.10;99.90;;;;;;5092601;28;20204;-53
2024/01/25 12:28:36;;;;;;;42.08;10.43;;;10.10;99.90;;;;;;5092349;28;20158;-51
2024/01/25 12:31:04;;;;;;;43.38;9.80;;;10.20;99.90;;;;;;5092193;28;20583;-52
2024/01/25 12:33:29;;;;;;;39.45;10.32;;;10.10;99.90;;;;;;5092719;28;20655;-52
2024/01/25 12:35:55;;;;;;;38.08;9.98;;;10.10;99.90;;;;;;5092186;28;20177;-51